sensor_id;sensor_type;location;lat;lon;timestamp;P1;durP1;ratioP1;P2;durP2;ratioP2
37047;SDS011;23227;48.780;9.210;2024-02-23T00:02:40;3.30;;;0.30;;
37047;SDS011;23227;48.780;9.210;2024-02-23T00:05:44;0.10;;;0.10;;
37047;SDS011;23227;48.780;9.210;2024-02-23T00:08:46;2.87;;;0.40;;
37047;SDS011;23227;48.780;9.210;2024-02-23T00:11:49;0.30;;;0.10;;
37047;SDS011;23227;48.780;9.210;2024-02-23T00:14:51;0.40;;;0.40;;
37047;SDS011;23227;48.780;9.210;2024-02-23T00:17:54;1.00;;;0.10;;
37047;SDS011;23227;48.780;9.210;2024-02-23T00:20:58;0.77;;;0.10;;
37047;SDS011;23227;48.780;9.210;2024-02-23T00:24:01;0.20;;;0.20;;
37047;SDS011;23227;48.780;9.210;2024-02-23T00:27:03;0.55;;;0.13;;
37047;SDS011;23227;48.780;9.210;2024-02-23T00:30:07;0.28;;;0.20;;
37047;SDS011;23227;48.780;9.210;2024-02-23T00:33:10;0.20;;;0.20;;
37047;SDS011;23227;48.780;9.210;2024-02-23T00:36:14;0.10;;;0.10;;
37047;SDS011;23227;48.780;9.210;2024-02-23T00:39:16;0.20;;;0.20;;
37047;SDS011;23227;48.780;9.210;2024-02-23T00:42:19;0.85;;;0.20;;
37047;SDS011;23227;48.780;9.210;2024-02-23T00:45:23;0.47;;;0.13;;
37047;SDS011;23227;48.780;9.210;2024-02-23T00:48:25;0.57;;;0.30;;
37047;SDS011;23227;48.780;9.210;2024-02-23T00:51:29;0.30;;;0.20;;
37047;SDS011;23227;48.780;9.210;2024-02-23T00:54:32;0.40;;;0.20;;
37047;SDS011;23227;48.780;9.210;2024-02-23T00:57:34;0.40;;;0.22;;
37047;SDS011;23227;48.780;9.210;2024-02-23T01:00:38;0.95;;;0.50;;
37047;SDS011;23227;48.780;9.210;2024-02-23T01:03:40;0.20;;;0.10;;
37047;SDS011;23227;48.780;9.210;2024-02-23T01:06:44;0.63;;;0.30;;
37047;SDS011;23227;48.780;9.210;2024-02-23T01:09:47;0.20;;;0.20;;
37047;SDS011;23227;48.780;9.210;2024-02-23T01:12:49;0.43;;;0.20;;
37047;SDS011;23227;48.780;9.210;2024-02-23T01:15:52;0.10;;;0.10;;
37047;SDS011;23227;48.780;9.210;2024-02-23T01:18:55;0.30;;;0.20;;
37047;SDS011;23227;48.780;9.210;2024-02-23T01:21:59;0.90;;;0.65;;
37047;SDS011;23227;48.780;9.210;2024-02-23T01:25:02;1.27;;;0.40;;
37047;SDS011;23227;48.780;9.210;2024-02-23T01:28:05;0.45;;;0.20;;
37047;SDS011;23227;48.780;9.210;2024-02-23T01:31:08;0.43;;;0.17;;
37047;SDS011;23227;48.780;9.210;2024-02-23T01:34:12;0.30;;;0.20;;
37047;SDS011;23227;48.780;9.210;2024-02-23T01:37:16;0.10;;;0.10;;
37047;SDS011;23227;48.780;9.210;2024-02-23T01:40:18;0.87;;;0.20;;
37047;SDS011;23227;48.780;9.210;2024-02-23T01:43:21;0.10;;;0.10;;
37047;SDS011;23227;48.780;9.210;2024-02-23T01:46:24;0.40;;;0.17;;
37047;SDS011;23227;48.780;9.210;2024-02-23T01:49:26;0.30;;;0.20;;
37047;SDS011;23227;48.780;9.210;2024-02-23T01:52:34;1.13;;;0.47;;
37047;SDS011;23227;48.780;9.210;2024-02-23T01:55:36;0.53;;;0.20;;
37047;SDS011;23227;48.780;9.210;2024-02-23T02:01:43;0.50;;;0.30;;
37047;SDS011;23227;48.780;9.210;2024-02-23T02:04:46;1.40;;;0.20;;
37047;SDS011;23227;48.780;9.210;2024-02-23T02:07:50;0.52;;;0.22;;
37047;SDS011;23227;48.780;9.210;2024-02-23T02:10:55;0.20;;;0.10;;
37047;SDS011;23227;48.780;9.210;2024-02-23T02:13:58;0.22;;;0.10;;
37047;SDS011;23227;48.780;9.210;2024-02-23T02:17:00;0.20;;;0.20;;
37047;SDS011;23227;48.780;9.210;2024-02-23T02:20:03;0.20;;;0.20;;
37047;SDS011;23227;48.780;9.210;2024-02-23T02:23:08;0.70;;;0.30;;
37047;SDS011;23227;48.780;9.210;2024-02-23T02:26:12;0.10;;;0.10;;
37047;SDS011;23227;48.780;9.210;2024-02-23T02:29:14;0.10;;;0.10;;
37047;SDS011;23227;48.780;9.210;2024-02-23T02:32:17;0.20;;;0.20;;
37047;SDS011;23227;48.780;9.210;2024-02-23T02:35:20;1.47;;;0.20;;
37047;SDS011;23227;48.780;9.210;2024-02-23T02:38:24;0.20;;;0.20;;
37047;SDS011;23227;48.780;9.210;2024-02-23T02:41:27;0.20;;;0.20;;
37047;SDS011;23227;48.780;9.210;2024-02-23T02:44:31;0.30;;;0.10;;
37047;SDS011;23227;48.780;9.210;2024-02-23T02:47:34;0.20;;;0.20;;
37047;SDS011;23227;48.780;9.210;2024-02-23T02:50:37;0.10;;;0.10;;
37047;SDS011;23227;48.780;9.210;2024-02-23T02:59:47;0.27;;;0.20;;
37047;SDS011;23227;48.780;9.210;2024-02-23T03:02:51;0.20;;;0.20;;
37047;SDS011;23227;48.780;9.210;2024-02-23T03:05:54;0.85;;;0.47;;
37047;SDS011;23227;48.780;9.210;2024-02-23T03:08:58;0.20;;;0.20;;
37047;SDS011;23227;48.780;9.210;2024-02-23T03:12:00;0.60;;;0.20;;
37047;SDS011;23227;48.780;9.210;2024-02-23T03:15:03;0.20;;;0.17;;
37047;SDS011;23227;48.780;9.210;2024-02-23T03:18:07;0.40;;;0.20;;
37047;SDS011;23227;48.780;9.210;2024-02-23T03:21:11;0.10;;;0.10;;
37047;SDS011;23227;48.780;9.210;2024-02-23T03:24:16;0.10;;;0.10;;
37047;SDS011;23227;48.780;9.210;2024-02-23T03:27:19;0.10;;;0.10;;
37047;SDS011;23227;48.780;9.210;2024-02-23T03:30:22;1.23;;;0.20;;
37047;SDS011;23227;48.780;9.210;2024-02-23T03:33:24;0.13;;;0.13;;
37047;SDS011;23227;48.780;9.210;2024-02-23T03:36:27;0.10;;;0.10;;
37047;SDS011;23227;48.780;9.210;2024-02-23T03:39:31;0.70;;;0.20;;
37047;SDS011;23227;48.780;9.210;2024-02-23T03:42:34;0.20;;;0.10;;
37047;SDS011;23227;48.780;9.210;2024-02-23T03:45:37;0.30;;;0.30;;
37047;SDS011;23227;48.780;9.210;2024-02-23T03:48:39;0.65;;;0.45;;
37047;SDS011;23227;48.780;9.210;2024-02-23T03:51:42;0.63;;;0.20;;
37047;SDS011;23227;48.780;9.210;2024-02-23T03:54:46;0.10;;;0.10;;
37047;SDS011;23227;48.780;9.210;2024-02-23T03:57:48;0.67;;;0.20;;
37047;SDS011;23227;48.780;9.210;2024-02-23T04:00:51;0.85;;;0.20;;
37047;SDS011;23227;48.780;9.210;2024-02-23T04:03:54;0.38;;;0.10;;
37047;SDS011;23227;48.780;9.210;2024-02-23T04:06:57;0.17;;;0.13;;
37047;SDS011;23227;48.780;9.210;2024-02-23T04:10:01;0.17;;;0.10;;
37047;SDS011;23227;48.780;9.210;2024-02-23T04:13:05;0.60;;;0.17;;
37047;SDS011;23227;48.780;9.210;2024-02-23T04:16:08;0.13;;;0.10;;
37047;SDS011;23227;48.780;9.210;2024-02-23T04:19:10;0.32;;;0.20;;
37047;SDS011;23227;48.780;9.210;2024-02-23T04:22:14;0.23;;;0.23;;
37047;SDS011;23227;48.780;9.210;2024-02-23T04:25:18;0.20;;;0.10;;
37047;SDS011;23227;48.780;9.210;2024-02-23T04:28:20;0.10;;;0.10;;
37047;SDS011;23227;48.780;9.210;2024-02-23T04:31:23;0.63;;;0.20;;
37047;SDS011;23227;48.780;9.210;2024-02-23T04:34:25;0.38;;;0.20;;
37047;SDS011;23227;48.780;9.210;2024-02-23T04:37:28;0.30;;;0.17;;
37047;SDS011;23227;48.780;9.210;2024-02-23T04:40:36;0.10;;;0.10;;
37047;SDS011;23227;48.780;9.210;2024-02-23T04:43:38;0.20;;;0.10;;
37047;SDS011;23227;48.780;9.210;2024-02-23T04:49:44;0.10;;;0.10;;
37047;SDS011;23227;48.780;9.210;2024-02-23T04:52:46;0.47;;;0.20;;
37047;SDS011;23227;48.780;9.210;2024-02-23T04:55:50;0.22;;;0.10;;
37047;SDS011;23227;48.780;9.210;2024-02-23T04:58:53;0.30;;;0.30;;
37047;SDS011;23227;48.780;9.210;2024-02-23T05:01:56;1.45;;;0.10;;
37047;SDS011;23227;48.780;9.210;2024-02-23T05:04:58;0.13;;;0.05;;
37047;SDS011;23227;48.780;9.210;2024-02-23T05:08:03;0.50;;;0.13;;
37047;SDS011;23227;48.780;9.210;2024-02-23T05:11:07;0.45;;;0.17;;
37047;SDS011;23227;48.780;9.210;2024-02-23T05:14:10;0.50;;;0.10;;
37047;SDS011;23227;48.780;9.210;2024-02-23T05:17:13;0.32;;;0.10;;
37047;SDS011;23227;48.780;9.210;2024-02-23T05:20:35;2.63;;;0.40;;
37047;SDS011;23227;48.780;9.210;2024-02-23T05:23:37;2.72;;;0.63;;
37047;SDS011;23227;48.780;9.210;2024-02-23T05:26:41;3.38;;;0.47;;
37047;SDS011;23227;48.780;9.210;2024-02-23T05:29:45;3.37;;;0.40;;
37047;SDS011;23227;48.780;9.210;2024-02-23T05:32:48;1.13;;;0.40;;
37047;SDS011;23227;48.780;9.210;2024-02-23T05:35:50;2.40;;;0.75;;
37047;SDS011;23227;48.780;9.210;2024-02-23T05:38:53;2.25;;;0.57;;
37047;SDS011;23227;48.780;9.210;2024-02-23T05:41:57;3.95;;;0.73;;
37047;SDS011;23227;48.780;9.210;2024-02-23T05:45:01;3.03;;;0.80;;
37047;SDS011;23227;48.780;9.210;2024-02-23T05:48:06;0.83;;;0.47;;
37047;SDS011;23227;48.780;9.210;2024-02-23T05:51:09;1.87;;;0.50;;
37047;SDS011;23227;48.780;9.210;2024-02-23T05:54:11;2.35;;;0.60;;
37047;SDS011;23227;48.780;9.210;2024-02-23T05:57:15;1.50;;;0.50;;
37047;SDS011;23227;48.780;9.210;2024-02-23T06:00:18;1.83;;;0.50;;
37047;SDS011;23227;48.780;9.210;2024-02-23T06:03:22;0.90;;;0.50;;
37047;SDS011;23227;48.780;9.210;2024-02-23T06:06:25;1.02;;;0.30;;
37047;SDS011;23227;48.780;9.210;2024-02-23T06:09:28;1.50;;;0.35;;
37047;SDS011;23227;48.780;9.210;2024-02-23T06:12:33;3.20;;;0.33;;
37047;SDS011;23227;48.780;9.210;2024-02-23T06:15:35;0.67;;;0.40;;
37047;SDS011;23227;48.780;9.210;2024-02-23T06:18:38;3.22;;;0.63;;
37047;SDS011;23227;48.780;9.210;2024-02-23T06:21:42;1.27;;;0.50;;
37047;SDS011;23227;48.780;9.210;2024-02-23T06:24:46;2.67;;;0.50;;
37047;SDS011;23227;48.780;9.210;2024-02-23T06:27:49;4.95;;;0.68;;
37047;SDS011;23227;48.780;9.210;2024-02-23T06:30:52;1.97;;;0.70;;
37047;SDS011;23227;48.780;9.210;2024-02-23T06:33:55;1.27;;;0.50;;
37047;SDS011;23227;48.780;9.210;2024-02-23T06:36:57;0.88;;;0.50;;
37047;SDS011;23227;48.780;9.210;2024-02-23T06:40:00;2.92;;;0.65;;
37047;SDS011;23227;48.780;9.210;2024-02-23T06:43:04;2.35;;;0.52;;
37047;SDS011;23227;48.780;9.210;2024-02-23T06:46:07;0.97;;;0.70;;
37047;SDS011;23227;48.780;9.210;2024-02-23T06:49:10;2.03;;;0.40;;
37047;SDS011;23227;48.780;9.210;2024-02-23T06:52:13;6.57;;;0.70;;
37047;SDS011;23227;48.780;9.210;2024-02-23T06:55:15;2.42;;;0.80;;
37047;SDS011;23227;48.780;9.210;2024-02-23T06:58:22;1.83;;;0.60;;
37047;SDS011;23227;48.780;9.210;2024-02-23T07:01:25;2.67;;;0.90;;
37047;SDS011;23227;48.780;9.210;2024-02-23T07:04:28;5.53;;;1.23;;
37047;SDS011;23227;48.780;9.210;2024-02-23T07:07:31;5.25;;;1.05;;
37047;SDS011;23227;48.780;9.210;2024-02-23T07:10:34;2.23;;;0.83;;
37047;SDS011;23227;48.780;9.210;2024-02-23T07:13:38;6.03;;;1.33;;
37047;SDS011;23227;48.780;9.210;2024-02-23T07:16:41;7.33;;;1.00;;
37047;SDS011;23227;48.780;9.210;2024-02-23T07:19:44;0.88;;;0.30;;
37047;SDS011;23227;48.780;9.210;2024-02-23T07:22:47;5.95;;;1.17;;
37047;SDS011;23227;48.780;9.210;2024-02-23T07:28:54;2.80;;;0.50;;
37047;SDS011;23227;48.780;9.210;2024-02-23T07:31:57;0.87;;;0.30;;
37047;SDS011;23227;48.780;9.210;2024-02-23T07:34:59;3.25;;;0.50;;
37047;SDS011;23227;48.780;9.210;2024-02-23T07:38:02;2.47;;;0.40;;
37047;SDS011;23227;48.780;9.210;2024-02-23T07:41:05;3.53;;;0.65;;
37047;SDS011;23227;48.780;9.210;2024-02-23T07:47:13;3.20;;;0.53;;
37047;SDS011;23227;48.780;9.210;2024-02-23T07:50:15;2.95;;;0.90;;
37047;SDS011;23227;48.780;9.210;2024-02-23T07:53:20;3.10;;;0.70;;
37047;SDS011;23227;48.780;9.210;2024-02-23T07:56:22;3.13;;;0.50;;
37047;SDS011;23227;48.780;9.210;2024-02-23T07:59:26;2.20;;;0.60;;
37047;SDS011;23227;48.780;9.210;2024-02-23T08:02:30;4.90;;;0.93;;
37047;SDS011;23227;48.780;9.210;2024-02-23T08:05:32;2.97;;;0.50;;
37047;SDS011;23227;48.780;9.210;2024-02-23T08:08:36;1.80;;;0.70;;
37047;SDS011;23227;48.780;9.210;2024-02-23T08:11:39;3.42;;;0.73;;
37047;SDS011;23227;48.780;9.210;2024-02-23T08:14:43;1.27;;;0.45;;
37047;SDS011;23227;48.780;9.210;2024-02-23T08:17:46;1.87;;;0.77;;
37047;SDS011;23227;48.780;9.210;2024-02-23T08:20:49;2.25;;;0.80;;
37047;SDS011;23227;48.780;9.210;2024-02-23T08:23:52;3.50;;;0.50;;
37047;SDS011;23227;48.780;9.210;2024-02-23T08:26:54;0.57;;;0.38;;
37047;SDS011;23227;48.780;9.210;2024-02-23T08:29:58;6.75;;;1.25;;
37047;SDS011;23227;48.780;9.210;2024-02-23T08:33:04;4.90;;;0.37;;
37047;SDS011;23227;48.780;9.210;2024-02-23T08:36:07;4.03;;;0.50;;
37047;SDS011;23227;48.780;9.210;2024-02-23T08:39:10;0.73;;;0.40;;
37047;SDS011;23227;48.780;9.210;2024-02-23T08:42:12;5.53;;;0.52;;
37047;SDS011;23227;48.780;9.210;2024-02-23T08:45:18;1.47;;;0.40;;
37047;SDS011;23227;48.780;9.210;2024-02-23T08:48:20;0.97;;;0.20;;
37047;SDS011;23227;48.780;9.210;2024-02-23T08:51:23;2.45;;;0.50;;
37047;SDS011;23227;48.780;9.210;2024-02-23T08:54:26;0.73;;;0.30;;
37047;SDS011;23227;48.780;9.210;2024-02-23T08:57:28;0.85;;;0.32;;
37047;SDS011;23227;48.780;9.210;2024-02-23T09:00:33;1.07;;;0.37;;
37047;SDS011;23227;48.780;9.210;2024-02-23T09:03:35;0.90;;;0.50;;
37047;SDS011;23227;48.780;9.210;2024-02-23T09:06:38;3.15;;;0.43;;
37047;SDS011;23227;48.780;9.210;2024-02-23T09:12:43;1.30;;;0.40;;
37047;SDS011;23227;48.780;9.210;2024-02-23T09:15:47;2.17;;;0.45;;
37047;SDS011;23227;48.780;9.210;2024-02-23T09:18:50;3.67;;;0.40;;
37047;SDS011;23227;48.780;9.210;2024-02-23T09:21:53;0.82;;;0.28;;
37047;SDS011;23227;48.780;9.210;2024-02-23T09:24:55;1.13;;;0.30;;
37047;SDS011;23227;48.780;9.210;2024-02-23T09:27:58;2.33;;;0.50;;
37047;SDS011;23227;48.780;9.210;2024-02-23T09:31:03;5.13;;;1.10;;
37047;SDS011;23227;48.780;9.210;2024-02-23T09:34:07;0.77;;;0.30;;
37047;SDS011;23227;48.780;9.210;2024-02-23T09:37:09;1.48;;;0.20;;
37047;SDS011;23227;48.780;9.210;2024-02-23T09:40:12;2.13;;;0.35;;
37047;SDS011;23227;48.780;9.210;2024-02-23T09:43:16;3.13;;;0.70;;
37047;SDS011;23227;48.780;9.210;2024-02-23T09:46:20;2.80;;;0.30;;
37047;SDS011;23227;48.780;9.210;2024-02-23T09:49:23;2.63;;;0.30;;
37047;SDS011;23227;48.780;9.210;2024-02-23T09:52:26;1.67;;;0.30;;
37047;SDS011;23227;48.780;9.210;2024-02-23T09:55:30;2.50;;;0.60;;
37047;SDS011;23227;48.780;9.210;2024-02-23T09:58:32;1.25;;;0.45;;
37047;SDS011;23227;48.780;9.210;2024-02-23T10:01:38;6.13;;;0.37;;
37047;SDS011;23227;48.780;9.210;2024-02-23T10:04:41;2.50;;;0.53;;
37047;SDS011;23227;48.780;9.210;2024-02-23T10:07:45;2.73;;;0.40;;
37047;SDS011;23227;48.780;9.210;2024-02-23T10:16:55;0.35;;;0.20;;
37047;SDS011;23227;48.780;9.210;2024-02-23T10:19:58;3.97;;;0.70;;
37047;SDS011;23227;48.780;9.210;2024-02-23T10:23:05;1.17;;;0.30;;
37047;SDS011;23227;48.780;9.210;2024-02-23T10:26:08;0.90;;;0.50;;
37047;SDS011;23227;48.780;9.210;2024-02-23T10:29:11;0.30;;;0.17;;
37047;SDS011;23227;48.780;9.210;2024-02-23T10:32:18;2.33;;;0.60;;
37047;SDS011;23227;48.780;9.210;2024-02-23T10:35:22;1.40;;;0.50;;
37047;SDS011;23227;48.780;9.210;2024-02-23T10:38:26;0.93;;;0.40;;
37047;SDS011;23227;48.780;9.210;2024-02-23T10:41:29;0.10;;;0.10;;
37047;SDS011;23227;48.780;9.210;2024-02-23T10:44:35;0.40;;;0.30;;
37047;SDS011;23227;48.780;9.210;2024-02-23T10:47:40;1.03;;;0.20;;
37047;SDS011;23227;48.780;9.210;2024-02-23T10:50:44;1.90;;;0.67;;
37047;SDS011;23227;48.780;9.210;2024-02-23T10:53:47;0.90;;;0.63;;
37047;SDS011;23227;48.780;9.210;2024-02-23T10:56:52;1.03;;;0.40;;
37047;SDS011;23227;48.780;9.210;2024-02-23T10:59:57;3.10;;;0.30;;
37047;SDS011;23227;48.780;9.210;2024-02-23T11:03:01;1.80;;;0.20;;
37047;SDS011;23227;48.780;9.210;2024-02-23T11:06:05;1.23;;;0.40;;
37047;SDS011;23227;48.780;9.210;2024-02-23T11:09:11;2.10;;;0.43;;
37047;SDS011;23227;48.780;9.210;2024-02-23T11:12:21;2.13;;;0.30;;
37047;SDS011;23227;48.780;9.210;2024-02-23T11:15:26;1.70;;;0.50;;
37047;SDS011;23227;48.780;9.210;2024-02-23T11:21:34;0.20;;;0.17;;
37047;SDS011;23227;48.780;9.210;2024-02-23T11:24:42;0.20;;;0.10;;
37047;SDS011;23227;48.780;9.210;2024-02-23T11:27:48;2.13;;;0.33;;
37047;SDS011;23227;48.780;9.210;2024-02-23T11:30:52;1.53;;;0.20;;
37047;SDS011;23227;48.780;9.210;2024-02-23T11:33:57;1.07;;;0.30;;
37047;SDS011;23227;48.780;9.210;2024-02-23T11:37:06;1.37;;;0.23;;
37047;SDS011;23227;48.780;9.210;2024-02-23T11:40:11;1.40;;;0.57;;
37047;SDS011;23227;48.780;9.210;2024-02-23T11:43:14;2.50;;;0.20;;
37047;SDS011;23227;48.780;9.210;2024-02-23T11:46:20;0.60;;;0.20;;
37047;SDS011;23227;48.780;9.210;2024-02-23T11:49:28;3.30;;;0.20;;
37047;SDS011;23227;48.780;9.210;2024-02-23T11:52:32;0.33;;;0.30;;
37047;SDS011;23227;48.780;9.210;2024-02-23T11:55:35;3.33;;;0.40;;
37047;SDS011;23227;48.780;9.210;2024-02-23T11:58:38;2.97;;;0.30;;
37047;SDS011;23227;48.780;9.210;2024-02-23T12:01:41;6.13;;;0.93;;
37047;SDS011;23227;48.780;9.210;2024-02-23T12:04:45;0.80;;;0.25;;
37047;SDS011;23227;48.780;9.210;2024-02-23T12:07:48;1.40;;;0.37;;
37047;SDS011;23227;48.780;9.210;2024-02-23T12:10:50;2.50;;;0.55;;
37047;SDS011;23227;48.780;9.210;2024-02-23T12:13:55;2.63;;;0.70;;
37047;SDS011;23227;48.780;9.210;2024-02-23T12:17:01;4.77;;;0.60;;
37047;SDS011;23227;48.780;9.210;2024-02-23T12:20:06;1.03;;;0.30;;
37047;SDS011;23227;48.780;9.210;2024-02-23T12:23:11;8.00;;;0.30;;
37047;SDS011;23227;48.780;9.210;2024-02-23T12:26:15;0.77;;;0.20;;
37047;SDS011;23227;48.780;9.210;2024-02-23T12:29:18;1.73;;;0.63;;
37047;SDS011;23227;48.780;9.210;2024-02-23T12:32:21;1.42;;;0.35;;
37047;SDS011;23227;48.780;9.210;2024-02-23T12:35:25;1.25;;;0.30;;
37047;SDS011;23227;48.780;9.210;2024-02-23T12:38:29;1.30;;;0.40;;
37047;SDS011;23227;48.780;9.210;2024-02-23T12:44:36;2.85;;;0.63;;
37047;SDS011;23227;48.780;9.210;2024-02-23T12:47:38;1.88;;;0.22;;
37047;SDS011;23227;48.780;9.210;2024-02-23T12:50:43;1.35;;;0.20;;
37047;SDS011;23227;48.780;9.210;2024-02-23T12:53:46;5.87;;;1.50;;
37047;SDS011;23227;48.780;9.210;2024-02-23T12:56:48;4.85;;;1.50;;
37047;SDS011;23227;48.780;9.210;2024-02-23T12:59:51;2.30;;;1.03;;
37047;SDS011;23227;48.780;9.210;2024-02-23T13:02:54;1.65;;;1.00;;
37047;SDS011;23227;48.780;9.210;2024-02-23T13:05:58;4.72;;;1.17;;
37047;SDS011;23227;48.780;9.210;2024-02-23T13:09:01;3.43;;;1.03;;
37047;SDS011;23227;48.780;9.210;2024-02-23T13:12:04;2.87;;;1.13;;
37047;SDS011;23227;48.780;9.210;2024-02-23T13:15:07;8.13;;;1.20;;
37047;SDS011;23227;48.780;9.210;2024-02-23T13:18:10;2.25;;;1.00;;
37047;SDS011;23227;48.780;9.210;2024-02-23T13:21:14;1.48;;;0.70;;
37047;SDS011;23227;48.780;9.210;2024-02-23T13:24:17;1.00;;;0.60;;
37047;SDS011;23227;48.780;9.210;2024-02-23T13:27:20;2.63;;;0.90;;
37047;SDS011;23227;48.780;9.210;2024-02-23T13:30:23;2.63;;;0.90;;
37047;SDS011;23227;48.780;9.210;2024-02-23T13:33:26;2.83;;;0.68;;
37047;SDS011;23227;48.780;9.210;2024-02-23T13:36:30;2.38;;;1.15;;
37047;SDS011;23227;48.780;9.210;2024-02-23T13:39:34;3.53;;;1.23;;
37047;SDS011;23227;48.780;9.210;2024-02-23T13:49:01;2.80;;;0.73;;
37047;SDS011;23227;48.780;9.210;2024-02-23T13:52:06;3.53;;;0.83;;
37047;SDS011;23227;48.780;9.210;2024-02-23T13:55:11;4.73;;;0.90;;
37047;SDS011;23227;48.780;9.210;2024-02-23T13:58:15;1.40;;;0.83;;
37047;SDS011;23227;48.780;9.210;2024-02-23T14:01:18;1.13;;;0.83;;
37047;SDS011;23227;48.780;9.210;2024-02-23T14:04:21;4.05;;;0.80;;
37047;SDS011;23227;48.780;9.210;2024-02-23T14:07:25;1.52;;;0.88;;
37047;SDS011;23227;48.780;9.210;2024-02-23T14:10:28;1.50;;;0.80;;
37047;SDS011;23227;48.780;9.210;2024-02-23T14:13:32;1.70;;;0.83;;
37047;SDS011;23227;48.780;9.210;2024-02-23T14:16:34;9.00;;;0.85;;
37047;SDS011;23227;48.780;9.210;2024-02-23T14:19:37;2.55;;;1.23;;
37047;SDS011;23227;48.780;9.210;2024-02-23T14:22:42;1.07;;;0.80;;
37047;SDS011;23227;48.780;9.210;2024-02-23T14:25:44;2.37;;;0.53;;
37047;SDS011;23227;48.780;9.210;2024-02-23T14:28:47;2.80;;;0.70;;
37047;SDS011;23227;48.780;9.210;2024-02-23T14:31:50;1.90;;;0.77;;
37047;SDS011;23227;48.780;9.210;2024-02-23T14:34:53;1.83;;;1.15;;
37047;SDS011;23227;48.780;9.210;2024-02-23T14:37:57;1.60;;;0.77;;
37047;SDS011;23227;48.780;9.210;2024-02-23T14:41:00;1.93;;;0.70;;
37047;SDS011;23227;48.780;9.210;2024-02-23T14:44:03;3.28;;;0.70;;
37047;SDS011;23227;48.780;9.210;2024-02-23T14:47:06;1.05;;;0.57;;
37047;SDS011;23227;48.780;9.210;2024-02-23T14:50:09;1.63;;;0.80;;
37047;SDS011;23227;48.780;9.210;2024-02-23T14:53:14;2.47;;;0.60;;
37047;SDS011;23227;48.780;9.210;2024-02-23T14:56:17;2.43;;;0.80;;
37047;SDS011;23227;48.780;9.210;2024-02-23T14:59:19;1.70;;;0.75;;
37047;SDS011;23227;48.780;9.210;2024-02-23T15:02:22;1.52;;;0.77;;
37047;SDS011;23227;48.780;9.210;2024-02-23T15:08:29;0.80;;;0.47;;
37047;SDS011;23227;48.780;9.210;2024-02-23T15:11:32;1.37;;;0.70;;
37047;SDS011;23227;48.780;9.210;2024-02-23T15:14:34;0.63;;;0.40;;
37047;SDS011;23227;48.780;9.210;2024-02-23T15:17:38;0.97;;;0.60;;
37047;SDS011;23227;48.780;9.210;2024-02-23T15:20:43;2.70;;;0.67;;
37047;SDS011;23227;48.780;9.210;2024-02-23T15:23:48;0.93;;;0.60;;
37047;SDS011;23227;48.780;9.210;2024-02-23T15:26:51;2.33;;;0.83;;
37047;SDS011;23227;48.780;9.210;2024-02-23T15:32:57;2.10;;;0.60;;
37047;SDS011;23227;48.780;9.210;2024-02-23T15:35:59;1.05;;;0.68;;
37047;SDS011;23227;48.780;9.210;2024-02-23T15:39:07;2.10;;;0.60;;
37047;SDS011;23227;48.780;9.210;2024-02-23T15:42:09;1.03;;;0.50;;
37047;SDS011;23227;48.780;9.210;2024-02-23T15:45:14;2.43;;;0.70;;
37047;SDS011;23227;48.780;9.210;2024-02-23T15:48:17;3.22;;;0.73;;
37047;SDS011;23227;48.780;9.210;2024-02-23T15:54:43;2.37;;;0.60;;
37047;SDS011;23227;48.780;9.210;2024-02-23T15:57:46;1.03;;;0.50;;
37047;SDS011;23227;48.780;9.210;2024-02-23T16:00:49;1.45;;;0.35;;
37047;SDS011;23227;48.780;9.210;2024-02-23T16:03:51;0.38;;;0.35;;
37047;SDS011;23227;48.780;9.210;2024-02-23T16:06:54;3.33;;;0.47;;
37047;SDS011;23227;48.780;9.210;2024-02-23T16:09:58;1.42;;;0.52;;
37047;SDS011;23227;48.780;9.210;2024-02-23T16:13:02;1.00;;;0.43;;
37047;SDS011;23227;48.780;9.210;2024-02-23T16:16:05;1.33;;;0.60;;
37047;SDS011;23227;48.780;9.210;2024-02-23T16:19:09;1.90;;;0.67;;
37047;SDS011;23227;48.780;9.210;2024-02-23T16:22:13;2.57;;;0.50;;
37047;SDS011;23227;48.780;9.210;2024-02-23T16:25:17;1.30;;;0.60;;
37047;SDS011;23227;48.780;9.210;2024-02-23T16:28:21;3.93;;;0.60;;
37047;SDS011;23227;48.780;9.210;2024-02-23T16:34:26;0.63;;;0.40;;
37047;SDS011;23227;48.780;9.210;2024-02-23T16:37:29;0.73;;;0.45;;
37047;SDS011;23227;48.780;9.210;2024-02-23T16:40:33;3.00;;;0.70;;
37047;SDS011;23227;48.780;9.210;2024-02-23T16:43:36;1.17;;;0.60;;
37047;SDS011;23227;48.780;9.210;2024-02-23T16:46:38;3.15;;;0.50;;
37047;SDS011;23227;48.780;9.210;2024-02-23T16:49:41;1.38;;;0.65;;
37047;SDS011;23227;48.780;9.210;2024-02-23T16:52:44;0.80;;;0.30;;
37047;SDS011;23227;48.780;9.210;2024-02-23T16:55:48;0.57;;;0.40;;
37047;SDS011;23227;48.780;9.210;2024-02-23T16:58:50;0.63;;;0.50;;
37047;SDS011;23227;48.780;9.210;2024-02-23T17:01:53;1.25;;;0.57;;
37047;SDS011;23227;48.780;9.210;2024-02-23T17:04:57;1.33;;;0.43;;
37047;SDS011;23227;48.780;9.210;2024-02-23T17:08:03;1.33;;;0.57;;
37047;SDS011;23227;48.780;9.210;2024-02-23T17:14:10;2.30;;;0.50;;
37047;SDS011;23227;48.780;9.210;2024-02-23T17:17:12;1.98;;;0.60;;
37047;SDS011;23227;48.780;9.210;2024-02-23T17:26:23;1.55;;;0.75;;
37047;SDS011;23227;48.780;9.210;2024-02-23T17:29:26;2.33;;;0.77;;
37047;SDS011;23227;48.780;9.210;2024-02-23T17:32:29;0.75;;;0.40;;
37047;SDS011;23227;48.780;9.210;2024-02-23T17:35:32;2.75;;;0.75;;
37047;SDS011;23227;48.780;9.210;2024-02-23T17:38:35;1.95;;;0.60;;
37047;SDS011;23227;48.780;9.210;2024-02-23T17:41:39;2.95;;;0.60;;
37047;SDS011;23227;48.780;9.210;2024-02-23T17:44:41;2.20;;;0.70;;
37047;SDS011;23227;48.780;9.210;2024-02-23T17:47:44;1.05;;;0.88;;
37047;SDS011;23227;48.780;9.210;2024-02-23T17:50:47;1.60;;;0.70;;
37047;SDS011;23227;48.780;9.210;2024-02-23T17:53:50;0.75;;;0.55;;
37047;SDS011;23227;48.780;9.210;2024-02-23T17:56:54;4.10;;;0.50;;
37047;SDS011;23227;48.780;9.210;2024-02-23T17:59:57;1.53;;;0.90;;
37047;SDS011;23227;48.780;9.210;2024-02-23T18:03:00;1.55;;;0.40;;
37047;SDS011;23227;48.780;9.210;2024-02-23T18:06:03;2.63;;;0.70;;
37047;SDS011;23227;48.780;9.210;2024-02-23T18:12:10;11.83;;;0.80;;
37047;SDS011;23227;48.780;9.210;2024-02-23T18:15:13;8.63;;;0.97;;
37047;SDS011;23227;48.780;9.210;2024-02-23T18:18:16;6.68;;;1.00;;
37047;SDS011;23227;48.780;9.210;2024-02-23T18:21:21;5.40;;;0.90;;
37047;SDS011;23227;48.780;9.210;2024-02-23T18:24:24;4.63;;;0.73;;
37047;SDS011;23227;48.780;9.210;2024-02-23T18:27:28;4.97;;;0.90;;
37047;SDS011;23227;48.780;9.210;2024-02-23T18:30:31;5.80;;;0.90;;
37047;SDS011;23227;48.780;9.210;2024-02-23T18:33:33;5.63;;;0.95;;
37047;SDS011;23227;48.780;9.210;2024-02-23T18:36:37;3.13;;;0.70;;
37047;SDS011;23227;48.780;9.210;2024-02-23T18:39:39;9.60;;;0.75;;
37047;SDS011;23227;48.780;9.210;2024-02-23T18:42:43;8.82;;;0.73;;
37047;SDS011;23227;48.780;9.210;2024-02-23T18:45:46;1.37;;;0.60;;
37047;SDS011;23227;48.780;9.210;2024-02-23T18:48:48;6.65;;;0.70;;
37047;SDS011;23227;48.780;9.210;2024-02-23T18:51:51;6.03;;;0.70;;
37047;SDS011;23227;48.780;9.210;2024-02-23T18:54:54;3.50;;;0.60;;
37047;SDS011;23227;48.780;9.210;2024-02-23T18:58:00;5.60;;;0.83;;
37047;SDS011;23227;48.780;9.210;2024-02-23T19:01:03;2.03;;;1.00;;
37047;SDS011;23227;48.780;9.210;2024-02-23T19:04:08;4.30;;;0.70;;
37047;SDS011;23227;48.780;9.210;2024-02-23T19:07:11;1.08;;;0.57;;
37047;SDS011;23227;48.780;9.210;2024-02-23T19:10:14;4.43;;;0.60;;
37047;SDS011;23227;48.780;9.210;2024-02-23T19:13:18;6.40;;;0.80;;
37047;SDS011;23227;48.780;9.210;2024-02-23T19:16:20;3.83;;;0.77;;
37047;SDS011;23227;48.780;9.210;2024-02-23T19:19:23;1.40;;;0.75;;
37047;SDS011;23227;48.780;9.210;2024-02-23T19:22:26;1.73;;;0.50;;
37047;SDS011;23227;48.780;9.210;2024-02-23T19:25:29;4.90;;;0.90;;
37047;SDS011;23227;48.780;9.210;2024-02-23T19:28:33;3.25;;;0.70;;
37047;SDS011;23227;48.780;9.210;2024-02-23T19:31:35;4.43;;;1.07;;